Home > Products > Valid Products > TAF

000
FTUS43 KLOT 302200 AAB
TAFORD
TAF AMD
KORD 302203Z 3022/3124 24006KT P6SM FEW150
     FM311500 22010KT P6SM FEW150 BKN250
     FM311700 25009KT P6SM BKN040 BKN150
     FM312300 26005KT P6SM OVC025=



000
FTUS43 KLOT 302200 AAB
TAFGYY
TAF AMD
KGYY 302203Z 3022/3118 VRB05KT P6SM FEW150
     FM310300 20006KT P6SM FEW150
     FM311500 23010KT P6SM FEW150 BKN250
     FM311700 25009KT P6SM BKN040 BKN150=



000
FTUS43 KLOT 302200 AAB
TAFMDW
TAF AMD
KMDW 302203Z 3022/3118 24006KT P6SM FEW150
     FM311500 23010KT P6SM FEW150 BKN250
     FM311700 25009KT P6SM BKN040 BKN150=



000
FTUS43 KLOT 302200 AAB
TAFGYY
TAF AMD
KGYY 302203Z 3022/3118 VRB05KT P6SM FEW150
     FM310300 20006KT P6SM FEW150
     FM311500 23010KT P6SM FEW150 BKN250
     FM311700 25009KT P6SM BKN040 BKN150=



000
FTUS43 KLOT 302200 AAB
TAFRFD
TAF AMD
KRFD 302203Z 3022/3118 24006KT P6SM FEW150
     FM311400 22010KT P6SM FEW150 BKN250
     FM311600 25009KT P6SM BKN040 BKN150=



000
FTUS43 KLOT 302200 AAB
TAFDPA
TAF AMD
KDPA 302203Z 3022/3118 24006KT P6SM FEW150
     FM311500 23010KT P6SM FEW150 BKN250
     FM311700 25009KT P6SM BKN040 BKN150=



000
FTUS43 KLOT 301900 AAA
TAFRFD
TAF AMD
KRFD 301947Z 3020/3118 28004KT P6SM FEW160
     FM302000 24006KT P6SM FEW150
     FM311400 22010KT P6SM FEW150 BKN250
     FM311600 25009KT P6SM BKN040 BKN150=



000
FTUS43 KLOT 301900 AAA
TAFORD
TAF AMD
KORD 301947Z 3020/3124 29005KT P6SM FEW160
     FM302000 24006KT P6SM FEW150
     FM311500 22010KT P6SM FEW150 BKN250
     FM311700 25009KT P6SM BKN040 BKN150
     FM312300 26005KT P6SM OVC025=



000
FTUS43 KLOT 301900 AAA
TAFDPA
TAF AMD
KDPA 301947Z 3020/3118 28005KT P6SM FEW160
     FM302000 24006KT P6SM FEW150
     FM311500 23010KT P6SM FEW150 BKN250
     FM311700 25009KT P6SM BKN040 BKN150=



000
FTUS43 KLOT 301900 AAA
TAFGYY
TAF AMD
KGYY 301947Z 3020/3118 33007KT P6SM FEW160
     FM302000 24006KT P6SM FEW150
     FM311500 23010KT P6SM FEW150 BKN250
     FM311700 25009KT P6SM BKN040 BKN150=



000
FTUS43 KLOT 301900 AAA
TAFGYY
TAF AMD
KGYY 301947Z 3020/3118 33007KT P6SM FEW160
     FM302000 24006KT P6SM FEW150
     FM311500 23010KT P6SM FEW150 BKN250
     FM311700 25009KT P6SM BKN040 BKN150=



000
FTUS43 KLOT 301900 AAA
TAFMDW
TAF AMD
KMDW 301947Z 3020/3118 28005KT P6SM FEW160
     FM302000 24006KT P6SM FEW150
     FM311500 23010KT P6SM FEW150 BKN250
     FM311700 25009KT P6SM BKN040 BKN150=



000
FTUS43 KLOT 301700
TAFRFD
TAF
KRFD 301727Z 3018/3118 35004KT P6SM FEW160
     FM302000 24006KT P6SM FEW150
     FM311400 22010KT P6SM FEW150 BKN250
     FM311600 25009KT P6SM BKN040 BKN150=



000
FTUS43 KLOT 301700
TAFGYY
TAF
KGYY 301727Z 3018/3118 34008KT P6SM FEW160
      TEMPO 3018/3020 BKN030
     FM302000 24006KT P6SM FEW150
     FM311500 23010KT P6SM FEW150 BKN250
     FM311700 25009KT P6SM BKN040 BKN150=



000
FTUS43 KLOT 301700
TAFMDW
TAF
KMDW 301727Z 3018/3118 33007KT P6SM FEW160
     FM302000 24006KT P6SM FEW150
     FM311500 23010KT P6SM FEW150 BKN250
     FM311700 25009KT P6SM BKN040 BKN150=



000
FTUS43 KLOT 301700
TAFORD
TAF
KORD 301727Z 3018/3124 33007KT P6SM FEW160
     FM302000 24006KT P6SM FEW150
     FM311500 22010KT P6SM FEW150 BKN250
     FM311700 25009KT P6SM BKN040 BKN150
     FM312300 26005KT P6SM OVC025=



000
FTUS43 KLOT 301700
TAFDPA
TAF
KDPA 301727Z 3018/3118 32007KT P6SM FEW160
     FM302000 24006KT P6SM FEW150
     FM311500 23010KT P6SM FEW150 BKN250
     FM311700 25009KT P6SM BKN040 BKN150=



000
FTUS43 KLOT 301700
TAFGYY
TAF
KGYY 301727Z 3018/3118 34008KT P6SM FEW160
      TEMPO 3018/3020 BKN030
     FM302000 24006KT P6SM FEW150
     FM311500 23010KT P6SM FEW150 BKN250
     FM311700 25009KT P6SM BKN040 BKN150=



000
FTUS43 KLOT 301600 AAB
TAFGYY
TAF AMD
KGYY 301608Z 3016/3112 34012KT P6SM BKN040
     FM301800 29007KT P6SM BKN120
     FM310000 23005KT P6SM SCT120=



000
FTUS43 KLOT 301600 AAB
TAFGYY
TAF AMD
KGYY 301608Z 3016/3112 34012KT P6SM BKN040
     FM301800 29007KT P6SM BKN120
     FM310000 23005KT P6SM SCT120=



000
FTUS43 KLOT 301600 AAB
TAFDPA
TAF AMD
KDPA 301608Z 3016/3112 01007KT P6SM SCT120
     FM302300 23005KT P6SM SCT120=



000
FTUS43 KLOT 301600 AAB
TAFORD
TAF AMD
KORD 301608Z 3016/3118 01007KT P6SM SCT120
     FM302300 24005KT P6SM SCT120
     FM311500 21009KT P6SM SCT050 SCT080=



000
FTUS43 KLOT 301600 AAB
TAFRFD
TAF AMD
KRFD 301608Z 3016/3112 36007KT P6SM SCT025 BKN150
     FM302000 24006KT P6SM BKN120
     FM310000 VRB03KT P6SM SCT120=



000
FTUS43 KLOT 301600 AAB
TAFMDW
TAF AMD
KMDW 301608Z 3016/3112 36007KT P6SM BKN120
     FM302300 23005KT P6SM SCT120=



000
FTUS43 KLOT 301300 AAA
TAFRFD
TAF AMD
KRFD 301402Z 3014/3112 34007KT P6SM SCT025 BKN150
     FM302000 24006KT P6SM BKN120
     FM310000 VRB03KT P6SM SCT120=



000
FTUS43 KLOT 301300 AAA
TAFORD
TAF AMD
KORD 301402Z 3014/3118 35009KT P6SM FEW040
     FM301600 32007KT P6SM BKN120
     FM302300 24005KT P6SM SCT120
     FM311500 21009KT P6SM SCT050 SCT080=



000
FTUS43 KLOT 301300 AAA
TAFGYY
TAF AMD
KGYY 301402Z 3014/3112 32012G22KT P6SM BKN025
     FM301600 31012KT P6SM BKN040
     FM301800 29007KT P6SM BKN120
     FM310000 23005KT P6SM SCT120=



000
FTUS43 KLOT 301300 AAA
TAFMDW
TAF AMD
KMDW 301402Z 3014/3112 34009KT P6SM FEW040
     FM301600 30007KT P6SM BKN120
     FM302300 23005KT P6SM SCT120=



000
FTUS43 KLOT 301300 AAA
TAFGYY
TAF AMD
KGYY 301402Z 3014/3112 32012G22KT P6SM BKN025
     FM301600 31012KT P6SM BKN040
     FM301800 29007KT P6SM BKN120
     FM310000 23005KT P6SM SCT120=



000
FTUS43 KLOT 301300 AAA
TAFDPA
TAF AMD
KDPA 301402Z 3014/3112 34005KT P6SM FEW040
     FM301600 30007KT P6SM BKN120
     FM302300 23005KT P6SM SCT120=



000
FTUS43 KLOT 301100
TAFDPA
TAF
KDPA 301139Z 3012/3112 34005KT P6SM SCT040
     FM301600 30007KT P6SM BKN120
     FM302300 23005KT P6SM SCT120=



000
FTUS43 KLOT 301100
TAFGYY
TAF
KGYY 301139Z 3012/3112 32012G22KT P6SM OVC045
     FM301800 29007KT P6SM BKN120
     FM310000 23005KT P6SM SCT120=



000
FTUS43 KLOT 301100
TAFMDW
TAF
KMDW 301139Z 3012/3112 34009KT P6SM FEW050
     FM301600 30007KT P6SM BKN120
     FM302300 23005KT P6SM SCT120=



000
FTUS43 KLOT 301100
TAFORD
TAF
KORD 301139Z 3012/3118 35009KT P6SM FEW050
     FM301600 32007KT P6SM BKN120
     FM302300 24005KT P6SM SCT120
     FM311500 21009KT P6SM SCT050 SCT080=



000
FTUS43 KLOT 301100
TAFGYY
TAF
KGYY 301139Z 3012/3112 32012G22KT P6SM OVC045
     FM301800 29007KT P6SM BKN120
     FM310000 23005KT P6SM SCT120=



000
FTUS43 KLOT 301100
TAFRFD
TAF
KRFD 301139Z 3012/3112 35008KT P6SM SKC
     FM301400 34007KT P6SM SCT025 BKN150
     FM302000 24006KT P6SM BKN120
     FM310000 VRB03KT P6SM SCT120=



000
FTUS43 KLOT 301000 AAB
TAFORD
TAF AMD
KORD 301018Z 3010/3112 34010KT P6SM FEW050
     FM301700 30007KT P6SM BKN120
     FM302300 23005KT P6SM SCT120=



000
FTUS43 KLOT 301000 AAC
TAFRFD
TAF AMD
KRFD 301018Z 3010/3106 36010G18KT P6SM FEW050
     FM301400 34007KT P6SM SCT025 BKN150
     FM302000 24006KT P6SM BKN120
     FM310000 VRB03KT P6SM SCT120=



000
FTUS43 KLOT 301000 AAB
TAFDPA
TAF AMD
KDPA 301018Z 3010/3106 34008KT P6SM FEW050
     FM301700 30007KT P6SM BKN120
     FM302300 23005KT P6SM SCT120=



000
FTUS43 KLOT 301000 AAB
TAFGYY
TAF AMD
KGYY 301018Z 3010/3106 34017G24KT P6SM OVC050
      TEMPO 3010/3012 4SM -SN OVC035
     FM301200 32010KT P6SM BKN035
     FM301800 29007KT P6SM BKN120
     FM310000 23005KT P6SM SCT120=



000
FTUS43 KLOT 301000 AAC
TAFMDW
TAF AMD
KMDW 301018Z 3010/3106 34011KT P6SM FEW050
     FM301700 30007KT P6SM BKN120
     FM302300 23005KT P6SM SCT120=



000
FTUS43 KLOT 301000 AAB
TAFGYY
TAF AMD
KGYY 301018Z 3010/3106 34017G24KT P6SM OVC050
      TEMPO 3010/3012 4SM -SN OVC035
     FM301200 32010KT P6SM BKN035
     FM301800 29007KT P6SM BKN120
     FM310000 23005KT P6SM SCT120=



000
FTUS43 KLOT 300800 AAB
TAFRFD
TAF AMD
KRFD 300844Z 3009/3106 36011KT P6SM BKN045
     FM301400 34007KT P6SM SCT025 BKN150
     FM302000 24006KT P6SM BKN120
     FM310000 VRB03KT P6SM SCT120=



000
FTUS43 KLOT 300800 AAA
TAFGYY
TAF AMD
KGYY 300844Z 3009/3106 34015G25KT P6SM SCT035 OVC050
      TEMPO 3009/3012 4SM -SN OVC035
     FM301200 32010KT P6SM BKN035
     FM301800 29007KT P6SM BKN120
     FM310000 23005KT P6SM SCT120=



000
FTUS43 KLOT 300800 AAA
TAFDPA
TAF AMD
KDPA 300844Z 3009/3106 34013KT P6SM BKN050
     FM301000 33010KT P6SM BKN035
     FM301700 30007KT P6SM BKN120
     FM302300 23005KT P6SM SCT120=



000
FTUS43 KLOT 300800 AAA
TAFORD
TAF AMD
KORD 300844Z 3009/3112 34010G18KT P6SM BKN040
     FM301700 30007KT P6SM BKN120
     FM302300 23005KT P6SM SCT120=



000
FTUS43 KLOT 300800 AAA
TAFGYY
TAF AMD
KGYY 300844Z 3009/3106 34015G25KT P6SM SCT035 OVC050
      TEMPO 3009/3012 4SM -SN OVC035
     FM301200 32010KT P6SM BKN035
     FM301800 29007KT P6SM BKN120
     FM310000 23005KT P6SM SCT120=



000
FTUS43 KLOT 300800 AAB
TAFMDW
TAF AMD
KMDW 300844Z 3009/3106 34012G20KT P6SM BKN040
     FM301700 30007KT P6SM BKN120
     FM302300 23005KT P6SM SCT120=



000
FTUS43 KLOT 300700 AAA
TAFRFD
TAF AMD
KRFD 300707Z 3007/3106 33012KT P6SM -SN OVC045
     FM300900 34011KT P6SM BKN035
     FM301400 34007KT P6SM SCT025 BKN150
     FM302000 24006KT P6SM BKN120
     FM310000 VRB03KT P6SM SCT120=



000
FTUS43 KLOT 300600 AAA
TAFMDW
TAF AMD
KMDW 300610Z 3006/3106 33014G22KT P6SM -SN OVC045
      TEMPO 3006/3008 4SM -SN OVC025
     FM300900 33010KT P6SM BKN035
     FM301700 30007KT P6SM BKN120
     FM302300 23005KT P6SM SCT120=



000
FTUS43 KLOT 300500
TAFGYY
TAF
KGYY 300520Z 3006/3106 32014G23KT P6SM -SN OVC045
      TEMPO 3006/3009 4SM -SN OVC035
     FM301000 32010KT P6SM BKN035
     FM301800 29007KT P6SM BKN120
     FM310000 23005KT P6SM SCT120=



000
FTUS43 KLOT 300500
TAFRFD
TAF
KRFD 300520Z 3006/3106 33015G23KT P6SM -SN OVC045
     FM300900 34011KT P6SM BKN035
     FM301400 34007KT P6SM SCT025 BKN150
     FM302000 24006KT P6SM BKN120
     FM310000 VRB03KT P6SM SCT120=



000
FTUS43 KLOT 300500
TAFORD
TAF
KORD 300520Z 3006/3112 33014G22KT P6SM -SN OVC045
      TEMPO 3006/3007 4SM -SN OVC035
     FM300900 33010KT P6SM BKN035
     FM301700 30007KT P6SM BKN120
     FM302300 23005KT P6SM SCT120=



000
FTUS43 KLOT 300500
TAFDPA
TAF
KDPA 300520Z 3006/3106 33014G24KT P6SM -SN OVC045
      TEMPO 3006/3008 4SM -SN OVC035
     FM301000 33010KT P6SM BKN035
     FM301700 30007KT P6SM BKN120
     FM302300 23005KT P6SM SCT120=



000
FTUS43 KLOT 300500
TAFGYY
TAF
KGYY 300520Z 3006/3106 32014G23KT P6SM -SN OVC045
      TEMPO 3006/3009 4SM -SN OVC035
     FM301000 32010KT P6SM BKN035
     FM301800 29007KT P6SM BKN120
     FM310000 23005KT P6SM SCT120=



000
FTUS43 KLOT 300500
TAFMDW
TAF
KMDW 300520Z 3006/3106 33014G22KT P6SM -SN OVC045
      TEMPO 3006/3008 4SM -SN OVC035
     FM300900 33010KT P6SM BKN035
     FM301700 30007KT P6SM BKN120
     FM302300 23005KT P6SM SCT120=



000
FTUS43 KLOT 300200 AAA
TAFGYY
TAF AMD
KGYY 300228Z 3002/3024 32015G25KT P6SM OVC040
     FM300500 33017G26KT P6SM -SN SCT035 OVC045
     FM300800 34013G20KT P6SM SCT025 BKN035
     FM301500 33008KT P6SM SCT025 SCT150
     FM302200 27007KT P6SM SCT015 BKN100=



000
FTUS43 KLOT 300200 AAA
TAFGYY
TAF AMD
KGYY 300228Z 3002/3024 32015G25KT P6SM OVC040
     FM300500 33017G26KT P6SM -SN SCT035 OVC045
     FM300800 34013G20KT P6SM SCT025 BKN035
     FM301500 33008KT P6SM SCT025 SCT150
     FM302200 27007KT P6SM SCT015 BKN100=



000
FTUS43 KLOT 300200 AAA
TAFRFD
TAF AMD
KRFD 300228Z 3002/3024 33012G19KT P6SM OVC040
     FM300400 33015G25KT P6SM -SN OVC035
     FM300700 34012G18KT P6SM SCT035
     FM301300 34008KT P6SM SCT025 SCT150=



000
FTUS43 KLOT 300200 AAA
TAFDPA
TAF AMD
KDPA 300228Z 3002/3024 32012G18KT P6SM OVC045
     FM300400 33015G25KT P6SM -SN SCT035 OVC045
     FM300700 34013G20KT P6SM SCT025 BKN035
     FM301500 33009KT P6SM SCT025 SCT150
     FM302100 27006KT P6SM SCT025 BKN100=



000
FTUS43 KLOT 300200 AAA
TAFMDW
TAF AMD
KMDW 300228Z 3002/3024 32012G18KT P6SM OVC045
     FM300400 33015G25KT P6SM -SN SCT035 OVC045
     FM300700 34013G20KT P6SM SCT025 BKN035
     FM301500 33009KT P6SM SCT025 SCT150
     FM302100 27006KT P6SM SCT025 BKN100=



000
FTUS43 KLOT 300200 AAA
TAFORD
TAF AMD
KORD 300228Z 3002/3106 32012G18KT P6SM OVC045
     FM300400 33015G25KT P6SM -SN SCT035 OVC045
     FM300700 34013G20KT P6SM SCT025 BKN035
     FM301500 33009KT P6SM SCT025 SCT150
     FM302100 27006KT P6SM SCT025 BKN100=



000
FTUS43 KLOT 292300
TAFDPA
TAF
KDPA 292338Z 3000/3024 33015G25KT P6SM OVC035
     FM300500 33015G25KT P6SM BKN025 OVC035
     FM300900 33013G19KT P6SM SCT020 BKN035
     FM301500 33009KT P6SM SCT025 SCT150
     FM302100 27006KT P6SM SCT025 BKN100=



000
FTUS43 KLOT 292300
TAFORD
TAF
KORD 292338Z 3000/3106 32015G25KT P6SM OVC035
     FM300500 33015G25KT P6SM BKN025 OVC035
     FM300900 33013G19KT P6SM SCT020 BKN035
     FM301500 33009KT P6SM SCT025 SCT150
     FM302100 27006KT P6SM SCT025 BKN100=



000
FTUS43 KLOT 292300
TAFMDW
TAF
KMDW 292338Z 3000/3024 32015G25KT P6SM OVC035
     FM300500 33015G25KT P6SM BKN025 OVC035
     FM300900 33013G19KT P6SM SCT020 BKN035
     FM301500 33009KT P6SM SCT025 SCT150
     FM302100 27006KT P6SM SCT025 BKN100=



000
FTUS43 KLOT 292300
TAFGYY
TAF
KGYY 292338Z 3000/3024 33015G25KT P6SM OVC035
     FM300600 33015G25KT P6SM BKN025 OVC035
     FM301100 33013G20KT P6SM SCT020 BKN035
     FM301500 33008KT P6SM SCT025 SCT150
     FM302200 27007KT P6SM SCT015 BKN100=



000
FTUS43 KLOT 292300
TAFRFD
TAF
KRFD 292338Z 3000/3024 33014G24KT P6SM OVC035
     FM300500 33015G22KT P6SM BKN025 OVC035
     FM301000 34012G18KT P6SM BKN035
     FM301300 34008KT P6SM SCT025 SCT150=



000
FTUS43 KLOT 292300
TAFGYY
TAF
KGYY 292338Z 3000/3024 33015G25KT P6SM OVC035
     FM300600 33015G25KT P6SM BKN025 OVC035
     FM301100 33013G20KT P6SM SCT020 BKN035
     FM301500 33008KT P6SM SCT025 SCT150
     FM302200 27007KT P6SM SCT015 BKN100=



000
FTUS43 KLOT 292200 AAB
TAFMDW
TAF AMD
KMDW 292200Z 2922/3018 32015G25KT P6SM BKN025 OVC035
     FM300900 33013G19KT P6SM SCT020 BKN035
     FM301500 33009KT P6SM SCT025 SCT150=



000
FTUS43 KLOT 292200 AAD
TAFDPA
TAF AMD
KDPA 292200Z 2922/3018 33014G24KT P6SM BKN028 OVC035
     FM300900 33012G18KT P6SM SCT020 BKN035
     FM301500 33008KT P6SM SCT025 SCT150=



000
FTUS43 KLOT 292200 AAB
TAFRFD
TAF AMD
KRFD 292200Z 2922/3018 33015G24KT P6SM BKN025 OVC035
     FM300600 34012G18KT P6SM SCT020 BKN035
     FM301300 34008KT P6SM SCT025 SCT150=



000
FTUS43 KLOT 292200 AAB
TAFORD
TAF AMD
KORD 292200Z 2922/3024 32014G25KT P6SM BKN025 OVC035
     FM300900 33013G19KT P6SM SCT020 BKN035
     FM301500 33009KT P6SM SCT025 SCT150
     FM302100 27006KT P6SM SCT025 BKN100=



000
FTUS43 KLOT 292200 AAB
TAFGYY
TAF AMD
KGYY 292200Z 2922/3018 32015G25KT P6SM BKN025 OVC035
     FM300900 33013G20KT P6SM SCT020 BKN035
     FM301500 33008KT P6SM SCT025 SCT150=



000
FTUS43 KLOT 292200 AAB
TAFGYY
TAF AMD
KGYY 292200Z 2922/3018 32015G25KT P6SM BKN025 OVC035
     FM300900 33013G20KT P6SM SCT020 BKN035
     FM301500 33008KT P6SM SCT025 SCT150=



000
FTUS43 KLOT 291900 AAC
TAFDPA
TAF AMD
KDPA 292000Z 2920/3018 33016G25KT P6SM BKN022 OVC030
     FM300900 33012G18KT P6SM SCT020 BKN035
     FM301500 33008KT P6SM SCT025 SCT150=



000
FTUS43 KLOT 291900 AAA
TAFRFD
TAF AMD
KRFD 292000Z 2920/3018 33015G24KT P6SM OVC022
     FM300600 34012G18KT P6SM SCT020 BKN035
     FM301300 34008KT P6SM SCT025 SCT150=



000
FTUS43 KLOT 291900 AAA
TAFGYY
TAF AMD
KGYY 292000Z 2920/3018 33016G28KT P6SM BKN022 OVC030
     FM300900 33013G20KT P6SM SCT020 BKN035
     FM301500 33008KT P6SM SCT025 SCT150=



000
FTUS43 KLOT 291900 AAA
TAFMDW
TAF AMD
KMDW 292000Z 2920/3018 33016G25KT P6SM BKN022 OVC030
     FM300900 33013G19KT P6SM SCT020 BKN035
     FM301500 33009KT P6SM SCT025 SCT150=



000
FTUS43 KLOT 291900 AAA
TAFORD
TAF AMD
KORD 292000Z 2920/3024 33016G25KT P6SM BKN022 OVC030
     FM300900 33013G19KT P6SM SCT020 BKN035
     FM301500 33009KT P6SM SCT025 SCT150
     FM302100 27006KT P6SM SCT025 BKN100=



000
FTUS43 KLOT 291800 AAB
TAFDPA
TAF AMD
KDPA 291846Z 2919/3018 33017G24KT P6SM OVC020
     FM300900 33012G18KT P6SM BKN020
     FM301500 33008KT P6SM SCT020 SCT150=



000
FTUS43 KLOT 291800 AAA
TAFDPA
TAF AMD
KDPA 291843Z 2919/3018 33017G25KT P6SM OVC020
     FM300900 33012G18KT P6SM BKN020
     FM301500 33008KT P6SM SCT020 SCT150=



000
FTUS43 KLOT 291700
TAFGYY
TAF
KGYY 291738Z 2918/3018 33018G30KT P6SM OVC019
     FM300000 33017G24KT P6SM OVC020
     FM300900 33013G20KT P6SM BKN020
     FM301500 33008KT P6SM SCT020 SCT150=



000
FTUS43 KLOT 291700
TAFORD
TAF
KORD 291738Z 2918/3024 33019G30KT P6SM OVC019
     FM300000 32017G25KT P6SM OVC020
     FM300900 33012G18KT P6SM BKN020
     FM301500 33008KT P6SM SCT020 SCT150
     FM302100 27006KT P6SM SCT025 BKN100=



000
FTUS43 KLOT 291700
TAFMDW
TAF
KMDW 291738Z 2918/3018 33019G30KT P6SM OVC020
     FM300000 33017G25KT P6SM OVC020
     FM300900 33012G18KT P6SM BKN020
     FM301500 33008KT P6SM SCT020 SCT150=



000
FTUS43 KLOT 291700
TAFDPA
TAF
KDPA 291738Z 2918/3018 33018G29KT P6SM OVC015
     FM300000 33016G24KT P6SM OVC020
     FM300900 33012G18KT P6SM BKN020
     FM301500 33008KT P6SM SCT020 SCT150=



000
FTUS43 KLOT 291700
TAFRFD
TAF
KRFD 291738Z 2918/3018 33015G25KT P6SM OVC019
     FM292300 33015G23KT P6SM OVC020
     FM300700 34012G18KT P6SM BKN020
     FM301300 34008KT P6SM SCT020 SCT150=



000
FTUS43 KLOT 291500 AAB
TAFRFD
TAF AMD
KRFD 291553Z 2916/3012 33018G29KT P6SM OVC015
     FM292300 33017G24KT P6SM OVC020
     FM300700 33010G17KT P6SM BKN020=



000
FTUS43 KLOT 291500 AAC
TAFDPA
TAF AMD
KDPA 291553Z 2916/3012 33016G25KT 5SM -RASN BR OVC016
     FM291700 33018G31KT P6SM OVC015
     FM300100 33016G23KT P6SM OVC020
     FM300900 33012G18KT P6SM BKN020=



000
FTUS43 KLOT 291500 AAB
TAFMDW
TAF AMD
KMDW 291553Z 2916/3012 33018G25KT 6SM -SN OVC016
     FM291700 33019G31KT P6SM OVC015
     FM300100 33017G25KT P6SM OVC020
     FM300900 33012G18KT P6SM BKN020=



000
FTUS43 KLOT 291500 AAD
TAFORD
TAF AMD
KORD 291553Z 2916/3018 33018G25KT 6SM -SN OVC016
     FM291700 33019G31KT P6SM OVC015
     FM300100 32017G25KT P6SM OVC020
     FM300900 33012G18KT P6SM BKN020
     FM301500 34008KT P6SM SCT020=



000
FTUS43 KLOT 291500 AAB
TAFGYY
TAF AMD
KGYY 291553Z 2916/3012 33016G30KT 6SM BR OVC016
     FM291700 33019G33KT P6SM OVC015
     FM300100 33017G24KT P6SM OVC020
     FM300900 33013G20KT P6SM BKN020=



000
FTUS43 KLOT 291400 AAC
TAFORD
TAF AMD
KORD 291420Z 2914/3018 33015G23KT 6SM -RASN BR OVC016
      TEMPO 2914/2916 2SM -SN OVC010
     FM291700 33018G31KT P6SM OVC015
     FM300100 32017G24KT P6SM BKN020
     FM300900 32011G18KT P6SM SCT020
     FM301600 30008KT P6SM FEW250=



000
FTUS43 KLOT 291400 AAB
TAFDPA
TAF AMD
KDPA 291419Z 2914/3012 33015G22KT 5SM -RASN BR OVC012
      TEMPO 2914/2915 3SM -SN
     FM291630 33018G31KT P6SM OVC015
     FM300100 32016G23KT P6SM BKN020
     FM300900 32010G17KT P6SM SCT020=



000
FTUS43 KLOT 291400 AAB
TAFORD
TAF AMD
KORD 291418Z 2914/3018 33015G23KT 6SM -RASN BR OVC016
      TEMPO 2914/2916 3SM -SN OVC010
     FM291700 33018G31KT P6SM OVC015
     FM300100 32017G24KT P6SM BKN020
     FM300900 32011G18KT P6SM SCT020
     FM301600 30008KT P6SM FEW250=



000
FTUS43 KLOT 291300 AAA
TAFMDW
TAF AMD
KMDW 291359Z 2914/3012 33013G20KT 6SM -SHRA BR OVC018
     FM291500 33016G24KT 5SM -RASN BR OVC012
     FM291700 33019G32KT P6SM OVC015
     FM300100 33017G24KT P6SM BKN020
     FM300900 32011G18KT P6SM SCT020=



000
FTUS43 KLOT 291300 AAA
TAFORD
TAF AMD
KORD 291359Z 2914/3018 33015G23KT 6SM -RASN BR OVC012
     FM291700 33018G31KT P6SM OVC015
     FM300100 32017G24KT P6SM BKN020
     FM300900 32011G18KT P6SM SCT020
     FM301600 30008KT P6SM FEW250=



000
FTUS43 KLOT 291300 AAA
TAFRFD
TAF AMD
KRFD 291359Z 2914/3012 32014G22KT 6SM -SNRA OVC010
     FM291600 33020G31KT P6SM OVC015
     FM292300 32017G24KT P6SM BKN020
     FM300700 32010G17KT P6SM SCT020=



000
FTUS43 KLOT 291300 AAA
TAFDPA
TAF AMD
KDPA 291359Z 2914/3012 33015G22KT 5SM -RASN BR OVC012
     FM291630 33018G31KT P6SM OVC015
     FM300100 32016G23KT P6SM BKN020
     FM300900 32010G17KT P6SM SCT020=



000
FTUS43 KLOT 291300 AAA
TAFGYY
TAF AMD
KGYY 291359Z 2914/3012 31011KT 6SM -SHRA BR OVC020
     FM291500 33015G24KT 5SM -RASN BR OVC010
     FM291700 33019G32KT P6SM OVC015
     FM300100 33017G24KT P6SM BKN020
     FM300900 32011G18KT P6SM SCT020=



000
FTUS43 KLOT 291300 AAA
TAFGYY
TAF AMD
KGYY 291359Z 2914/3012 31011KT 6SM -SHRA BR OVC020
     FM291500 33015G24KT 5SM -RASN BR OVC010
     FM291700 33019G32KT P6SM OVC015
     FM300100 33017G24KT P6SM BKN020
     FM300900 32011G18KT P6SM SCT020=



000
FTUS43 KLOT 291100
TAFGYY
TAF
KGYY 291136Z 2912/3012 16008KT P6SM FEW030 BKN090
     FM291330 33011KT 6SM -SHRA BR OVC020
     FM291430 33015G24KT 4SM -RASN BR OVC008
     FM291630 33019G32KT P6SM OVC010
     FM300100 33017G24KT P6SM BKN020
     FM300900 32011G18KT P6SM SCT020=



000
FTUS43 KLOT 291100
TAFMDW
TAF
KMDW 291136Z 2912/3012 34008KT P6SM SCT030 BKN090
     FM291300 33011KT 6SM -SHRA BR OVC020
     FM291400 33015G24KT 4SM -RASN BR OVC008
     FM291600 33019G32KT P6SM OVC010
     FM300100 33017G24KT P6SM BKN020
     FM300900 32011G18KT P6SM SCT020=



000
FTUS43 KLOT 291100
TAFGYY
TAF
KGYY 291136Z 2912/3012 16008KT P6SM FEW030 BKN090
     FM291330 33011KT 6SM -SHRA BR OVC020
     FM291430 33015G24KT 4SM -RASN BR OVC008
     FM291630 33019G32KT P6SM OVC010
     FM300100 33017G24KT P6SM BKN020
     FM300900 32011G18KT P6SM SCT020=



000
FTUS43 KLOT 291100
TAFRFD
TAF
KRFD 291136Z 2912/3012 33011KT 6SM BR VCSH OVC017
     FM291300 32015G24KT 6SM BR VCSH OVC008
      TEMPO 2913/2915 5SM -RASN OVC006
     FM291700 33020G31KT P6SM OVC010
     FM292300 32017G24KT P6SM BKN020
     FM300700 32010G17KT P6SM SCT020=



000
FTUS43 KLOT 291100
TAFDPA
TAF
KDPA 291136Z 2912/3012 34009KT P6SM BKN022
     FM291300 34011KT 6SM -SHRA BR OVC012
     FM291400 33015G24KT 4SM -RASN BR OVC007
     FM291600 33018G31KT P6SM OVC010
     FM300100 32016G23KT P6SM BKN020
     FM300900 32010G17KT P6SM SCT020=



000
FTUS43 KLOT 291100
TAFORD
TAF
KORD 291136Z 2912/3018 35008KT P6SM BKN025
     FM291300 34011KT 6SM -SHRA BR OVC015
     FM291400 33015G24KT 4SM -RASN BR OVC008
     FM291600 33018G31KT P6SM OVC010
     FM300100 32017G24KT P6SM BKN020
     FM300900 32011G18KT P6SM SCT020
     FM301600 30008KT P6SM FEW250=



000
FTUS43 KLOT 290900 AAA
TAFMDW
TAF AMD
KMDW 290902Z 2909/3006 16009KT P6SM BKN090
     FM291200 34008KT 6SM BR BKN025
     FM291300 34011KT 5SM -DZ BR OVC012
     FM291400 32015G24KT 5SM -RASN OVC008
     FM291600 33019G32KT P6SM OVC012
     FM300100 33017G24KT P6SM BKN025
     FM300500 32015G22KT P6SM SCT025=



000
FTUS43 KLOT 290900 AAA
TAFGYY
TAF AMD
KGYY 290902Z 2909/3006 15012KT P6SM BKN100
     FM291300 35010KT 5SM -DZ BR OVC012
     FM291500 32016G25KT 5SM -RASN OVC008
     FM291700 33025G35KT P6SM OVC012
     FM300100 33019G27KT P6SM BKN025=



000
FTUS43 KLOT 290900 AAA
TAFORD
TAF AMD
KORD 290902Z 2909/3012 15007KT P6SM BKN090
     FM291200 35008KT 6SM BR BKN020
     FM291300 34011KT 5SM -DZ BR OVC012
     FM291400 32015G24KT 5SM -RASN OVC008
     FM291600 33018G31KT P6SM OVC012
     FM300100 33017G24KT P6SM BKN025
     FM300500 32015G22KT P6SM SCT025=



000
FTUS43 KLOT 290900 AAA
TAFDPA
TAF AMD
KDPA 290902Z 2909/3006 15007KT P6SM BKN090
     FM291200 35008KT 6SM BR BKN020
     FM291300 34012KT 5SM -DZ BR OVC012
     FM291400 32015G24KT 5SM -RASN OVC008
     FM291600 33018G31KT P6SM OVC012
     FM300100 33017G24KT P6SM BKN025
     FM300500 32015G22KT P6SM SCT025=



000
FTUS43 KLOT 290900 AAA
TAFRFD
TAF AMD
KRFD 290902Z 2909/3006 07005KT P6SM SCT025 BKN100
     FM291000 03008KT 6SM BR BKN020
     FM291130 35012KT 5SM -DZ BR OVC010
     FM291300 32015G26KT 5SM -RASN OVC008
     FM291500 33020G31KT P6SM OVC015
     FM292300 32017G24KT P6SM BKN025
     FM300300 31014G21KT P6SM SCT025=



000
FTUS43 KLOT 290500
TAFGYY
TAF
KGYY 290521Z 2906/3006 16013G21KT P6SM VCSH OVC080
     FM290800 15012KT P6SM BKN100
     FM291300 35010KT 5SM -DZ BR OVC012
     FM291500 32016G25KT 5SM -RASN OVC008
     FM291700 33025G35KT P6SM OVC012
     FM300100 33019G27KT P6SM BKN025=



000
FTUS43 KLOT 290500
TAFDPA
TAF
KDPA 290521Z 2906/3006 17012G20KT P6SM VCSH OVC090
     FM290700 16011KT 6SM BR BKN100
     FM291200 35010KT 5SM -DZ BR OVC012
     FM291400 32015G24KT 5SM -RASN OVC008
     FM291600 33018G31KT P6SM OVC012
     FM300100 33017G24KT P6SM BKN025
     FM300500 32015G22KT P6SM SCT025=



000
FTUS43 KLOT 290500
TAFRFD
TAF
KRFD 290521Z 2906/3006 15011G18KT P6SM VCSH BKN100
     FM290730 11009KT P6SM SCT030 BKN100
     FM291100 35008KT 5SM -DZ BR OVC010
     FM291300 32015G26KT 5SM -RASN OVC008
     FM291500 33020G31KT P6SM OVC015
     FM292300 32017G24KT P6SM BKN025
     FM300300 31014G21KT P6SM SCT025=



000
FTUS43 KLOT 290500
TAFGYY
TAF
KGYY 290521Z 2906/3006 16013G21KT P6SM VCSH OVC080
     FM290800 15012KT P6SM BKN100
     FM291300 35010KT 5SM -DZ BR OVC012
     FM291500 32016G25KT 5SM -RASN OVC008
     FM291700 33025G35KT P6SM OVC012
     FM300100 33019G27KT P6SM BKN025=



000
FTUS43 KLOT 290500
TAFMDW
TAF
KMDW 290521Z 2906/3006 17013G21KT P6SM VCSH OVC080
     FM290730 16011KT P6SM BKN100
     FM291200 35010KT 5SM -DZ BR OVC012
     FM291400 32015G24KT 5SM -RASN OVC008
     FM291600 33019G32KT P6SM OVC012
     FM300100 33017G24KT P6SM BKN025
     FM300500 32015G22KT P6SM SCT025=



000
FTUS43 KLOT 290500
TAFORD
TAF
KORD 290521Z 2906/3012 17013G21KT P6SM VCSH OVC080
      TEMPO 2906/2907 -RA
     FM290730 16011KT P6SM BKN100
     FM291200 35010KT 5SM -DZ BR OVC012
     FM291400 32015G24KT 5SM -RASN OVC008
     FM291600 33018G31KT P6SM OVC012
     FM300100 33017G24KT P6SM BKN025
     FM300500 32015G22KT P6SM SCT025=



000
FTUS43 KLOT 290400 AAB
TAFGYY
TAF AMD
KGYY 290436Z 2905/2924 17015G25KT P6SM VCSH OVC100
      TEMPO 2905/2906 -RA
     FM290700 17014G23KT P6SM SCT120
     FM291000 23013KT 5SM -DZ OVC015
     FM291200 28010KT 3SM -DZ BR OVC007
     FM291500 32016G27KT P6SM -RASN OVC015
     FM291700 32025G35KT P6SM OVC020=



000
FTUS43 KLOT 290400 AAB
TAFGYY
TAF AMD
KGYY 290436Z 2905/2924 17015G25KT P6SM VCSH OVC100
      TEMPO 2905/2906 -RA
     FM290700 17014G23KT P6SM SCT120
     FM291000 23013KT 5SM -DZ OVC015
     FM291200 28010KT 3SM -DZ BR OVC007
     FM291500 32016G27KT P6SM -RASN OVC015
     FM291700 32025G35KT P6SM OVC020=



000
FTUS43 KLOT 290400 AAB
TAFMDW
TAF AMD
KMDW 290428Z 2904/2924 17015G23KT P6SM VCSH OVC100
      TEMPO 2904/2906 -RA
     FM290700 18014G22KT P6SM SCT150
     FM291000 20013KT 6SM -DZ BR OVC012
     FM291300 28010KT 4SM -DZ BR OVC007
     FM291500 32016G27KT P6SM -RASN OVC015
     FM291700 33018G30KT P6SM OVC020=



000
FTUS43 KLOT 290400 AAB
TAFORD
TAF AMD
KORD 290423Z 2904/3006 18015G23KT P6SM VCSH OVC100
      TEMPO 2904/2906 -RA
     FM290700 18014G22KT P6SM SCT150
     FM290900 20013KT 6SM -DZ BR OVC012
     FM291200 28010KT 4SM -DZ BR OVC007
     FM291400 32014G23KT P6SM -RASN OVC015
     FM291700 33018G30KT P6SM OVC020
     FM300100 32016G25KT P6SM SCT020=



000
FTUS43 KLOT 290400 AAB
TAFDPA
TAF AMD
KDPA 290423Z 2904/2924 17015G23KT P6SM VCSH OVC100
      TEMPO 2904/2905 -RA
     FM290700 18014G22KT P6SM SCT150
     FM290900 20013KT 5SM -DZ BR OVC012
     FM291200 28010KT 3SM -DZ BR OVC007
     FM291400 32014G23KT P6SM -RASN OVC015
     FM291700 33018G30KT P6SM OVC020=



000
FTUS43 KLOT 290300 AAA
TAFGYY
TAF AMD
KGYY 290302Z 2903/2924 15015G25KT P6SM BKN150
     FM290400 17015G25KT P6SM VCSH BKN120
     FM290700 17015G25KT P6SM SCT120
     FM291000 23013KT 5SM -DZ OVC015
     FM291200 28010KT 3SM -DZ BR OVC007
     FM291500 32016G27KT P6SM -RASN OVC015
     FM291700 32025G35KT P6SM OVC020=



000
FTUS43 KLOT 290300 AAA
TAFRFD
TAF AMD
KRFD 290302Z 2903/2924 16014G21KT P6SM SCT100 BKN150
     FM290600 17014G22KT P6SM SCT120
     FM290900 19013KT 5SM -DZ BR OVC010
     FM291300 33017G27KT P6SM -RASN OVC015
     FM291600 33020G31KT P6SM BKN020=



000
FTUS43 KLOT 290300 AAA
TAFDPA
TAF AMD
KDPA 290302Z 2903/2924 17015G23KT P6SM VCSH BKN150
     FM290700 18015G23KT P6SM SCT150
     FM290900 20013KT 5SM -DZ BR OVC012
     FM291200 28010KT 3SM -DZ BR OVC007
     FM291400 32014G23KT P6SM -RASN OVC015
     FM291700 33018G30KT P6SM OVC020=



000
FTUS43 KLOT 290300 AAA
TAFGYY
TAF AMD
KGYY 290302Z 2903/2924 15015G25KT P6SM BKN150
     FM290400 17015G25KT P6SM VCSH BKN120
     FM290700 17015G25KT P6SM SCT120
     FM291000 23013KT 5SM -DZ OVC015
     FM291200 28010KT 3SM -DZ BR OVC007
     FM291500 32016G27KT P6SM -RASN OVC015
     FM291700 32025G35KT P6SM OVC020=



000
FTUS43 KLOT 290300 AAA
TAFORD
TAF AMD
KORD 290302Z 2903/3006 18015G23KT P6SM VCSH BKN150
     FM290700 18015G23KT P6SM SCT150
     FM290900 20013KT 6SM -DZ BR OVC012
     FM291200 28010KT 4SM -DZ BR OVC007
     FM291400 32014G23KT P6SM -RASN OVC015
     FM291700 33018G30KT P6SM OVC020
     FM300100 32016G25KT P6SM SCT020=



000
FTUS43 KLOT 290300 AAA
TAFMDW
TAF AMD
KMDW 290302Z 2903/2924 17015G23KT P6SM VCSH BKN150
     FM290700 18015G23KT P6SM SCT150
     FM291000 20013KT 6SM -DZ BR OVC012
     FM291300 28010KT 4SM -DZ BR OVC007
     FM291500 32016G27KT P6SM -RASN OVC015
     FM291700 33018G30KT P6SM OVC020=



000
FTUS43 KLOT 282300
TAFGYY
TAF
KGYY 282340Z 2900/2924 17015G23KT P6SM SCT030 BKN150
     FM290900 23013KT 6SM -SHRA OVC015
     FM291200 28010KT 4SM -RASN BR OVC007
     FM291500 32016G27KT P6SM OVC015
     FM291800 32025G35KT P6SM OVC020=



000
FTUS43 KLOT 282300
TAFGYY
TAF
KGYY 282340Z 2900/2924 17015G23KT P6SM SCT030 BKN150
     FM290900 23013KT 6SM -SHRA OVC015
     FM291200 28010KT 4SM -RASN BR OVC007
     FM291500 32016G27KT P6SM OVC015
     FM291800 32025G35KT P6SM OVC020=



000
FTUS43 KLOT 282300
TAFMDW
TAF
KMDW 282340Z 2900/2924 15013G19KT P6SM OVC200
     FM290100 17015G23KT P6SM SCT030 BKN150
     FM290500 17015G23KT P6SM VCSH SCT030 BKN100
     FM290900 20013KT 6SM -RADZ OVC012
     FM291300 28010KT 5SM -RADZ BR OVC007
     FM291500 32016G27KT P6SM -RASN OVC015
     FM291800 33018G30KT P6SM OVC020=



000
FTUS43 KLOT 282300
TAFORD
TAF
KORD 282340Z 2900/3006 15015G23KT P6SM BKN150
     FM290500 17015G23KT P6SM VCSH SCT030 BKN100
     FM290900 20013KT 6SM -RADZ BR OVC012
     FM291200 28010KT 4SM -RADZ BR OVC007
     FM291400 32014G23KT P6SM -RASN OVC015
     FM291800 33018G30KT P6SM OVC020
     FM300100 32016G25KT P6SM SCT020=



000
FTUS43 KLOT 282300
TAFDPA
TAF
KDPA 282340Z 2900/2924 15013G21KT P6SM BKN200
     FM290400 17015G23KT P6SM VCSH SCT030 BKN100
     FM290900 23013KT 6SM -RADZ SCT009 OVC012
     FM291200 28010KT 3SM -RADZ BR OVC007
     FM291400 32016G27KT P6SM -RASN OVC015
     FM291800 33018G30KT P6SM OVC020=



000
FTUS43 KLOT 282300
TAFRFD
TAF
KRFD 282340Z 2900/2924 15016G24KT P6SM BKN150
     FM290400 18014G21KT P6SM SCT030 BKN100
     FM290900 19013KT 6SM -RADZ OVC010
     FM291300 33017G27KT P6SM -RASN OVC015
     FM291600 33020G31KT P6SM BKN020=



000
FTUS43 KLOT 282200 AAB
TAFGYY
TAF AMD
KGYY 282202Z 2822/2918 15014G22KT P6SM BKN200
     FM290000 17015G23KT P6SM SCT030 BKN150
     FM290900 23013KT 6SM -SHRA OVC015
     FM291200 28010KT 4SM -RASN BR OVC007
     FM291500 32016G27KT P6SM OVC015=



000
FTUS43 KLOT 282200 AAB
TAFORD
TAF AMD
KORD 282202Z 2822/2924 16013G19KT P6SM OVC200
     FM290000 16015G23KT P6SM BKN150
     FM290500 17015G23KT P6SM VCSH SCT030 BKN100
     FM290900 23013KT 6SM -SHRA OVC015
     FM291200 28010KT 4SM -RADZ BR OVC007
     FM291400 32014G23KT P6SM -RASN OVC015
     FM291800 33018G30KT P6SM OVC020=



000
FTUS43 KLOT 282200 AAB
TAFDPA
TAF AMD
KDPA 282202Z 2822/2918 16013KT P6SM BKN200
     FM290400 17015G23KT P6SM VCSH SCT030 BKN100
     FM290900 23013KT 6SM -SHRA SCT009 OVC015
     FM291200 28010KT 3SM -RASN BR OVC007
     FM291500 32016G27KT P6SM OVC015=



000
FTUS43 KLOT 282200 AAB
TAFMDW
TAF AMD
KMDW 282202Z 2822/2918 16013G19KT P6SM OVC200
     FM290100 17015G23KT P6SM SCT030 BKN150
     FM290500 17015G23KT P6SM VCSH SCT030 BKN100
     FM290900 23013KT 6SM -SHRA OVC015
     FM291200 28010KT 5SM -RASN BR OVC007
     FM291500 32016G27KT P6SM OVC015=



000
FTUS43 KLOT 282200 AAB
TAFRFD
TAF AMD
KRFD 282202Z 2822/2918 16016G24KT P6SM BKN150
     FM290400 18014G21KT P6SM SCT030 BKN100
     FM290900 23013KT 6SM -SHRA OVC010
     FM291500 33017G27KT P6SM OVC018=



000
FTUS43 KLOT 282200 AAB
TAFGYY
TAF AMD
KGYY 282202Z 2822/2918 15014G22KT P6SM BKN200
     FM290000 17015G23KT P6SM SCT030 BKN150
     FM290900 23013KT 6SM -SHRA OVC015
     FM291200 28010KT 4SM -RASN BR OVC007
     FM291500 32016G27KT P6SM OVC015=



000
FTUS43 KLOT 281900 AAA
TAFGYY
TAF AMD
KGYY 281955Z 2820/2918 16012KT P6SM BKN200
     FM290000 17015G23KT P6SM SCT030 BKN150
     FM290900 23013KT 6SM -SHRA OVC015
     FM291200 28010KT 4SM -RASN BR OVC007
     FM291500 32016G27KT P6SM OVC015=



000
FTUS43 KLOT 281900 AAA
TAFORD
TAF AMD
KORD 281955Z 2820/2924 17013G19KT P6SM OVC200
     FM290000 16015G23KT P6SM BKN150
     FM290500 17015G23KT P6SM VCSH SCT030 BKN100
     FM290900 23013KT 6SM -SHRA OVC015
     FM291200 28010KT 4SM -RADZ BR OVC007
     FM291400 32014G23KT P6SM -RASN OVC015
     FM291800 33018G30KT P6SM OVC020=



000
FTUS43 KLOT 281900 AAA
TAFDPA
TAF AMD
KDPA 281955Z 2820/2918 17013KT P6SM BKN200
     FM290400 17015G23KT P6SM VCSH SCT030 BKN100
     FM290900 23013KT 6SM -SHRA SCT009 OVC015
     FM291200 28010KT 3SM -RASN BR OVC007
     FM291500 32016G27KT P6SM OVC015=



000
FTUS43 KLOT 281900 AAA
TAFMDW
TAF AMD
KMDW 281955Z 2820/2918 17013G19KT P6SM OVC200
     FM290100 17015G23KT P6SM SCT030 BKN150
     FM290500 17015G23KT P6SM VCSH SCT030 BKN100
     FM290900 23013KT 6SM -SHRA OVC015
     FM291200 28010KT 5SM -RASN BR OVC007
     FM291500 32016G27KT P6SM OVC015=



000
FTUS43 KLOT 281900 AAA
TAFGYY
TAF AMD
KGYY 281955Z 2820/2918 16012KT P6SM BKN200
     FM290000 17015G23KT P6SM SCT030 BKN150
     FM290900 23013KT 6SM -SHRA OVC015
     FM291200 28010KT 4SM -RASN BR OVC007
     FM291500 32016G27KT P6SM OVC015=



000
FTUS43 KLOT 281900 AAA
TAFRFD
TAF AMD
KRFD 281955Z 2820/2918 16014KT P6SM BKN200
     FM282300 16016G24KT P6SM BKN150
     FM290400 18014G21KT P6SM SCT030 BKN100
     FM290900 23013KT 6SM -SHRA OVC010
     FM291500 33017G27KT P6SM OVC018=



000
FTUS43 KLOT 281700 RRA
TAFDPA
TAF
KDPA 281755Z 2818/2918 17015G22KT P6SM BKN200
     FM290400 17015G23KT P6SM VCSH SCT030 BKN100
     FM290900 23013KT 6SM -SHRA SCT009 OVC015
     FM291200 28010KT 3SM -RASN BR OVC007
     FM291500 32016G27KT P6SM OVC015=



000
FTUS43 KLOT 281700 RRA
TAFGYY
TAF
KGYY 281755Z 2818/2918 16012G19KT P6SM BKN200
     FM290000 17015G23KT P6SM SCT030 BKN150
     FM290900 23013KT 6SM -SHRA OVC015
     FM291200 28010KT 4SM -RASN BR OVC007
     FM291500 32016G27KT P6SM OVC015=



000
FTUS43 KLOT 281700 RRA
TAFORD
TAF
KORD 281755Z 2818/2924 17013G20KT P6SM BKN200
     FM290000 16015G23KT P6SM BKN150
     FM290500 17015G23KT P6SM VCSH SCT030 BKN100
     FM290900 23013KT 6SM -SHRA OVC015
     FM291200 28010KT 4SM -RADZ BR OVC007
     FM291400 32014G23KT P6SM -RASN OVC015
     FM291800 33018G30KT P6SM OVC020=



000
FTUS43 KLOT 281700 RRA
TAFMDW
TAF
KMDW 281755Z 2818/2918 17013G20KT P6SM BKN200
     FM290100 17015G23KT P6SM SCT030 BKN150
     FM290500 17015G23KT P6SM VCSH SCT030 BKN100
     FM290900 23013KT 6SM -SHRA OVC015
     FM291200 28010KT 5SM -RASN BR OVC007
     FM291500 32016G27KT P6SM OVC015=



000
FTUS43 KLOT 281700 RRA
TAFGYY
TAF
KGYY 281755Z 2818/2918 16012G19KT P6SM BKN200
     FM290000 17015G23KT P6SM SCT030 BKN150
     FM290900 23013KT 6SM -SHRA OVC015
     FM291200 28010KT 4SM -RASN BR OVC007
     FM291500 32016G27KT P6SM OVC015=



000
FTUS43 KLOT 281700 RRA
TAFRFD
TAF
KRFD 281755Z 2818/2918 16014G22KT P6SM BKN200
     FM282200 16016G24KT P6SM BKN100
     FM290400 18014G21KT P6SM SCT030 BKN100
     FM290800 23013KT 6SM -SHRA OVC010
     FM291500 33017G27KT P6SM OVC018=



000
FTUS43 KLOT 281600 AAB
TAFGYY
TAF AMD
KGYY 281600Z 2816/2912 15009KT P6SM BKN250
     FM281800 15013G21KT P6SM BKN200
     FM290100 16016G24KT P6SM SCT030 BKN100
     FM291000 22013KT 6SM -SHRA OVC015=



000
FTUS43 KLOT 281600 AAB
TAFMDW
TAF AMD
KMDW 281600Z 2816/2912 16011KT P6SM BKN250
     FM281800 16013G21KT P6SM BKN200
     FM290100 17015G23KT P6SM SCT030 BKN100
     FM290900 23013KT 6SM -SHRA OVC015=



000
FTUS43 KLOT 281600 AAB
TAFGYY
TAF AMD
KGYY 281600Z 2816/2912 15009KT P6SM BKN250
     FM281800 15013G21KT P6SM BKN200
     FM290100 16016G24KT P6SM SCT030 BKN100
     FM291000 22013KT 6SM -SHRA OVC015=



000
FTUS43 KLOT 281600 AAB
TAFRFD
TAF AMD
KRFD 281600Z 2816/2912 16010KT P6SM BKN250
     FM281700 16014G23KT P6SM BKN200
     FM282200 16016G24KT P6SM BKN100
     FM290400 18014G21KT P6SM SCT030 BKN100
     FM290800 23013KT 6SM -SHRA OVC012=



000
FTUS43 KLOT 281600 AAB
TAFDPA
TAF AMD
KDPA 281600Z 2816/2912 16010KT P6SM BKN250
     FM281800 16013G21KT P6SM BKN200
     FM290100 17015G23KT P6SM SCT030 BKN100
     FM290900 23013KT 6SM -SHRA OVC015=



000
FTUS43 KLOT 281600 AAB
TAFORD
TAF AMD
KORD 281600Z 2816/2918 16011KT P6SM BKN250
     FM281800 16013G21KT P6SM BKN200
     FM290100 17015G23KT P6SM SCT030 BKN100
     FM290900 23013KT 6SM -SHRA OVC015
     FM291500 32016G27KT P6SM OVC020=



000
FTUS43 KLOT 281300 AAA
TAFRFD
TAF AMD
KRFD 281359Z 2814/2912 16010KT P6SM FEW022 BKN250
     FM281700 16014G23KT P6SM BKN150
     FM282200 16016G24KT P6SM BKN100
     FM290400 18014G21KT P6SM SCT030 BKN100
     FM290800 23013KT 6SM -SHRA OVC012=



000
FTUS43 KLOT 281300 AAA
TAFORD
TAF AMD
KORD 281359Z 2814/2918 16008KT P6SM FEW150 BKN250
     FM281600 16010KT P6SM SCT150
     FM281800 16013G21KT P6SM BKN150
     FM290100 17015G23KT P6SM SCT030 BKN100
     FM290900 23013KT 6SM -SHRA OVC015
     FM291500 32016G27KT P6SM OVC020=



000
FTUS43 KLOT 281300 AAA
TAFGYY
TAF AMD
KGYY 281359Z 2814/2912 15009KT P6SM SCT250
     FM281800 15013G21KT P6SM BKN150
     FM290100 16016G24KT P6SM SCT030 BKN100
     FM291000 22013KT 6SM -SHRA OVC015=



000
FTUS43 KLOT 281300 AAA
TAFGYY
TAF AMD
KGYY 281359Z 2814/2912 15009KT P6SM SCT250
     FM281800 15013G21KT P6SM BKN150
     FM290100 16016G24KT P6SM SCT030 BKN100
     FM291000 22013KT 6SM -SHRA OVC015=



000
FTUS43 KLOT 281300 AAA
TAFMDW
TAF AMD
KMDW 281359Z 2814/2912 16008KT P6SM FEW150 BKN250
     FM281600 16010KT P6SM SCT150
     FM281800 16013G21KT P6SM BKN150
     FM290100 17015G23KT P6SM SCT030 BKN100
     FM290900 23013KT 6SM -SHRA OVC015=



000
FTUS43 KLOT 281300 AAA
TAFDPA
TAF AMD
KDPA 281359Z 2814/2912 16008KT P6SM FEW150 SCT250
     FM281500 16010KT P6SM SCT150
     FM281800 16013G21KT P6SM BKN150
     FM290100 17015G23KT P6SM SCT030 BKN100
     FM290900 23013KT 6SM -SHRA OVC015=



000
FTUS43 KLOT 281100 RRA
TAFGYY
TAF
KGYY 281142Z 2812/2912 14006KT P6SM FEW150
     FM281500 15010KT P6SM SCT150
     FM281800 15013G21KT P6SM BKN150
     FM290100 16016G24KT P6SM SCT030 BKN100
     FM291000 22013KT 6SM -SHRA OVC015=



000
FTUS43 KLOT 281100 RRA
TAFORD
TAF
KORD 281142Z 2812/2918 15006KT P6SM FEW020 FEW150
     FM281500 16010KT P6SM SCT150
     FM281800 16013G21KT P6SM BKN150
     FM290100 17015G23KT P6SM SCT030 BKN100
     FM290900 23013KT 6SM -SHRA OVC015
     FM291500 32016G27KT P6SM OVC020=



000
FTUS43 KLOT 281100 RRA
TAFDPA
TAF
KDPA 281142Z 2812/2912 15006KT P6SM FEW020 FEW150
     FM281500 16010KT P6SM SCT150
     FM281800 16013G21KT P6SM BKN150
     FM290100 17015G23KT P6SM SCT030 BKN100
     FM290900 23013KT 6SM -SHRA OVC015=



000
FTUS43 KLOT 281100 RRA
TAFRFD
TAF
KRFD 281142Z 2812/2912 15008KT P6SM BKN018 BKN120
     FM281400 15010KT P6SM SCT150
     FM281700 16014G23KT P6SM BKN150
     FM282200 16016G24KT P6SM BKN100
     FM290400 18014G21KT P6SM SCT030 BKN100
     FM290800 23013KT 6SM -SHRA OVC012=



000
FTUS43 KLOT 281100 RRA
TAFMDW
TAF
KMDW 281142Z 2812/2912 15006KT P6SM FEW150
     FM281500 16010KT P6SM SCT150
     FM281800 16013G21KT P6SM BKN150
     FM290100 17015G23KT P6SM SCT030 BKN100
     FM290900 23013KT 6SM -SHRA OVC015=



000
FTUS43 KLOT 280800 AAA
TAFRFD
TAF AMD
KRFD 280850Z 2809/2906 15006KT P6SM BKN017 BKN120
     FM281400 15010KT P6SM SCT200
     FM281700 16014G23KT P6SM SCT030 BKN100
     FM290300 18014G21KT P6SM SCT030 BKN100=



000
FTUS43 KLOT 280800 AAA
TAFDPA
TAF AMD
KDPA 280850Z 2809/2906 16003KT P6SM FEW022 BKN120
     FM281400 17009KT P6SM SCT200
     FM281800 16013G22KT P6SM BKN200
     FM290400 18014G21KT P6SM SCT030 BKN100=



000
FTUS43 KLOT 280800 AAA
TAFGYY
TAF AMD
KGYY 280850Z 2809/2906 VRB03KT P6SM BKN120
     FM281500 17009KT P6SM SCT200
     FM281800 15013G22KT P6SM BKN200
     FM290500 18014G21KT P6SM SCT030 BKN100=



000
FTUS43 KLOT 280800 AAA
TAFMDW
TAF AMD
KMDW 280850Z 2809/2906 16003KT P6SM FEW022 BKN120
     FM281400 17009KT P6SM SCT200
     FM281800 16013G22KT P6SM BKN200
     FM290400 18014G21KT P6SM SCT030 BKN100=



000
FTUS43 KLOT 280800 AAA
TAFGYY
TAF AMD
KGYY 280850Z 2809/2906 VRB03KT P6SM BKN120
     FM281500 17009KT P6SM SCT200
     FM281800 15013G22KT P6SM BKN200
     FM290500 18014G21KT P6SM SCT030 BKN100=



000
FTUS43 KLOT 280800 AAA
TAFORD
TAF AMD
KORD 280850Z 2809/2912 16003KT P6SM FEW022 BKN120
     FM281400 17009KT P6SM SCT200
     FM281800 16013G22KT P6SM BKN200
     FM290400 18014G21KT P6SM SCT030 BKN100
     FM290900 22013KT P6SM VCSH OVC015=



000
FTUS43 KLOT 280500
TAFGYY
TAF
KGYY 280539Z 2806/2906 VRB03KT 6SM BR FEW022 SCT250
     FM281500 17009KT P6SM SCT250
     FM281800 15013G22KT P6SM BKN200
     FM290500 18014G21KT P6SM SCT030 BKN100=



000
FTUS43 KLOT 280500
TAFORD
TAF
KORD 280539Z 2806/2912 16003KT P6SM SCT022 SCT250
     FM281400 17009KT P6SM SCT250
     FM281800 16013G22KT P6SM BKN200
     FM290400 18014G21KT P6SM SCT030 BKN100
     FM290900 22013KT P6SM VCSH OVC015=



000
FTUS43 KLOT 280500
TAFDPA
TAF
KDPA 280539Z 2806/2906 16003KT P6SM SCT022 SCT250
      TEMPO 2806/2809 4SM BR
     FM281400 17009KT P6SM SCT250
     FM281800 16013G22KT P6SM BKN200
     FM290400 18014G21KT P6SM SCT030 BKN100=



000
FTUS43 KLOT 280500
TAFGYY
TAF
KGYY 280539Z 2806/2906 VRB03KT 6SM BR FEW022 SCT250
     FM281500 17009KT P6SM SCT250
     FM281800 15013G22KT P6SM BKN200
     FM290500 18014G21KT P6SM SCT030 BKN100=



000
FTUS43 KLOT 280500
TAFMDW
TAF
KMDW 280539Z 2806/2906 16003KT P6SM FEW022 SCT250
     FM281400 17009KT P6SM SCT250
     FM281800 16013G22KT P6SM BKN200
     FM290400 18014G21KT P6SM SCT030 BKN100=



000
FTUS43 KLOT 280500
TAFRFD
TAF
KRFD 280539Z 2806/2906 14003KT P6SM BKN020
      TEMPO 2806/2808 SCT020
     FM280800 14006KT P6SM BKN015
     FM281400 15010KT P6SM SCT250
     FM281700 16014G23KT P6SM SCT030 BKN100
     FM290300 18014G21KT P6SM SCT030 BKN100=



000
FTUS43 KLOT 280300 AAC
TAFRFD
TAF AMD
KRFD 280351Z 2804/2824 00000KT P6SM SCT025
      TEMPO 2804/2808 BKN025
     FM280800 VRB03KT 4SM BR SCT250
     FM281400 15010KT P6SM FEW150 BKN200
     FM281700 16014G22KT P6SM FEW100 BKN180=



000
FTUS43 KLOT 280300 AAC
TAFRFD
TAF AMD
KRFD 280351Z 2804/2824 00000KT P6SM SCT025
      TEMPO 2804/2808 BKN025
     FM280800 VRB03KT 4SM BR SCT250
     FM281400 15010KT P6SM FEW150 BKN200
     FM281700 16014G22KT P6SM FEW100 BKN180=



000
FTUS43 KLOT 280300 AAA
TAFDPA
TAF AMD
KDPA 280301Z 2803/2824 09004KT P6SM FEW250
     FM280800 VRB03KT 4SM BR SCT250
     FM281400 17008KT P6SM FEW150 BKN200
     FM281700 16014G22KT P6SM FEW100 BKN180=



000
FTUS43 KLOT 280300 AAA
TAFGYY
TAF AMD
KGYY 280301Z 2803/2824 VRB03KT P6SM SCT250
     FM281400 17008KT P6SM FEW150 BKN200
     FM281700 16013G21KT P6SM FEW100 BKN180=



000
FTUS43 KLOT 280300 AAB
TAFRFD
TAF AMD
KRFD 280301Z 2803/2824 00000KT P6SM FEW024
     FM280800 VRB03KT 4SM BR SCT250
     FM281400 15010KT P6SM FEW150 BKN200
     FM281700 16014G22KT P6SM FEW100 BKN180=



000
FTUS43 KLOT 280300 AAA
TAFGYY
TAF AMD
KGYY 280301Z 2803/2824 VRB03KT P6SM SCT250
     FM281400 17008KT P6SM FEW150 BKN200
     FM281700 16013G21KT P6SM FEW100 BKN180=



000
FTUS43 KLOT 280300 AAA
TAFGYY
TAF AMD
KGYY 280301Z 2803/2824 VRB03KT P6SM SCT250
     FM281400 17008KT P6SM FEW150 BKN200
     FM281700 16013G21KT P6SM FEW100 BKN180=



000
FTUS43 KLOT 280300 AAA
TAFMDW
TAF AMD
KMDW 280301Z 2803/2824 04004KT P6SM FEW025
     FM280600 20003KT P6SM SCT250
     FM281400 17008KT P6SM FEW150 BKN200
     FM281700 16013G21KT P6SM FEW100 BKN180=



000
FTUS43 KLOT 280300 AAA
TAFMDW
TAF AMD
KMDW 280301Z 2803/2824 04004KT P6SM FEW025
     FM280600 20003KT P6SM SCT250
     FM281400 17008KT P6SM FEW150 BKN200
     FM281700 16013G21KT P6SM FEW100 BKN180=



000
FTUS43 KLOT 280300 AAA
TAFORD
TAF AMD
KORD 280301Z 2803/2906 06004KT P6SM FEW030
     FM280600 VRB03KT P6SM SCT250
     FM281400 17008KT P6SM FEW150 BKN200
     FM281700 16013G21KT P6SM FEW100 BKN180
     FM290200 18012KT P6SM SCT025 BKN050=



000
FTUS43 KLOT 280300 AAA
TAFORD
TAF AMD
KORD 280301Z 2803/2906 06004KT P6SM FEW030
     FM280600 VRB03KT P6SM SCT250
     FM281400 17008KT P6SM FEW150 BKN200
     FM281700 16013G21KT P6SM FEW100 BKN180
     FM290200 18012KT P6SM SCT025 BKN050=



000
FTUS43 KLOT 280300 AAA
TAFGYY
TAF AMD
KGYY 280301Z 2803/2824 VRB03KT P6SM SCT250
     FM281400 17008KT P6SM FEW150 BKN200
     FM281700 16013G21KT P6SM FEW100 BKN180=



000
FTUS43 KLOT 280300 AAA
TAFDPA
TAF AMD
KDPA 280301Z 2803/2824 09004KT P6SM FEW250
     FM280800 VRB03KT 4SM BR SCT250
     FM281400 17008KT P6SM FEW150 BKN200
     FM281700 16014G22KT P6SM FEW100 BKN180=



000
FTUS43 KLOT 280300 AAB
TAFRFD
TAF AMD
KRFD 280301Z 2803/2824 00000KT P6SM FEW024
     FM280800 VRB03KT 4SM BR SCT250
     FM281400 15010KT P6SM FEW150 BKN200
     FM281700 16014G22KT P6SM FEW100 BKN180=



000
FTUS43 KLOT 280200 AAA
TAFRFD
TAF AMD
KRFD 280209Z 2802/2824 VRB03KT P6SM SCT025
     FM280400 VRB03KT 4SM BR SCT250
     FM281400 15010KT P6SM FEW150 BKN200
     FM281700 16014G22KT P6SM FEW100 BKN180=



000
FTUS43 KLOT 272300
TAFGYY
TAF
KGYY 272322Z 2800/2824 36006KT P6SM FEW250
     FM280100 VRB03KT P6SM SCT250
     FM281400 17008KT P6SM FEW150 BKN200
     FM281700 16013G21KT P6SM FEW100 BKN180=



000
FTUS43 KLOT 272300
TAFDPA
TAF
KDPA 272322Z 2800/2824 04004KT P6SM SCT030
     FM280100 VRB03KT P6SM SCT250
     FM280700 VRB03KT 4SM BR SCT250
     FM281400 17008KT P6SM FEW150 BKN200
     FM281700 16014G22KT P6SM FEW100 BKN180=



000
FTUS43 KLOT 272300
TAFRFD
TAF
KRFD 272322Z 2800/2824 VRB03KT P6SM BKN020
     FM280400 VRB03KT 4SM BR SCT250
     FM281400 15010KT P6SM FEW150 BKN200
     FM281700 16014G22KT P6SM FEW100 BKN180=



000
FTUS43 KLOT 272300
TAFORD
TAF
KORD 272322Z 2800/2906 04006KT P6SM FEW030 FEW250
     FM280100 VRB03KT P6SM SCT250
     FM281400 17008KT P6SM FEW150 BKN200
     FM281700 16013G21KT P6SM FEW100 BKN180
     FM290200 18012KT P6SM SCT025 BKN050=



000
FTUS43 KLOT 272300
TAFGYY
TAF
KGYY 272322Z 2800/2824 36006KT P6SM FEW250
     FM280100 VRB03KT P6SM SCT250
     FM281400 17008KT P6SM FEW150 BKN200
     FM281700 16013G21KT P6SM FEW100 BKN180=



000
FTUS43 KLOT 272300
TAFMDW
TAF
KMDW 272322Z 2800/2824 03006KT P6SM FEW030 FEW250
     FM280100 06003KT P6SM SCT250
     FM280600 20003KT P6SM SCT250
     FM281400 17008KT P6SM FEW150 BKN200
     FM281700 16013G21KT P6SM FEW100 BKN180=



    US Dept of Commerce
    National Oceanic and Atmospheric Administration
    National Weather Service
    1325 East West Highway
    Silver Spring, MD 20910
    Page Author: NWS Internet Services Team
Disclaimer
Information Quality
Credits
Glossary
Privacy Policy
Freedom of Information Act (FOIA)
About Us
Career Opportunities